createdAt,value
2023-04-28T00:00:22.114Z,1780.00
2023-04-28T00:01:22.105Z,1773.00
2023-04-28T00:02:22.166Z,1775.00
2023-04-28T00:03:22.120Z,1777.00
2023-04-28T00:04:22.338Z,1754.00
2023-04-28T00:05:22.161Z,1761.00
2023-04-28T00:06:21.958Z,1753.00
2023-04-28T00:07:21.926Z,1752.00
2023-04-28T00:08:21.896Z,1747.00
2023-04-28T00:09:21.869Z,1751.00
2023-04-28T00:10:21.858Z,1753.00
2023-04-28T00:11:21.847Z,1748.00
2023-04-28T00:12:21.813Z,1746.00
2023-04-28T00:13:21.782Z,1742.00
2023-04-28T00:14:21.768Z,1745.00
2023-04-28T00:15:21.729Z,1748.00
2023-04-28T00:16:21.768Z,1735.00
2023-04-28T00:17:21.704Z,1744.00
2023-04-28T00:18:21.742Z,1719.00
2023-04-28T00:19:21.648Z,1724.00
2023-04-28T00:20:21.628Z,1727.00
2023-04-28T00:21:21.617Z,1716.00
2023-04-28T00:22:21.598Z,1724.00
2023-04-28T00:23:21.578Z,1715.00
2023-04-28T00:24:21.549Z,1712.00
2023-04-28T00:25:21.525Z,1710.00
2023-04-28T00:26:21.490Z,1712.00
2023-04-28T00:27:21.480Z,1706.00
2023-04-28T00:29:22.404Z,1710.00
2023-04-28T00:30:21.393Z,1710.00
2023-04-28T00:31:21.362Z,1713.00
2023-04-28T00:32:21.399Z,1707.00
2023-04-28T00:33:21.306Z,1709.00
2023-04-28T00:34:21.276Z,1700.00
2023-04-28T00:35:21.251Z,1703.00
2023-04-28T00:36:21.234Z,1711.00
2023-04-28T00:37:21.214Z,1696.00
2023-04-28T00:38:21.198Z,1697.00
2023-04-28T00:39:21.175Z,1701.00
2023-04-28T00:40:21.162Z,1679.00
2023-04-28T00:41:21.139Z,1702.00
2023-04-28T00:42:21.124Z,1681.00
2023-04-28T00:43:21.096Z,1680.00
2023-04-28T00:44:21.078Z,1680.00
2023-04-28T00:45:21.056Z,1674.00
2023-04-28T00:46:21.076Z,1680.00
2023-04-28T00:47:21.017Z,1680.00
2023-04-28T00:48:20.995Z,1674.00
2023-04-28T00:49:20.992Z,1663.00
2023-04-28T00:50:20.980Z,1663.00
2023-04-28T00:51:20.945Z,1650.00
2023-04-28T00:52:20.928Z,1660.00
2023-04-28T00:53:20.897Z,1659.00
2023-04-28T00:54:20.882Z,1648.00
2023-04-28T00:55:20.868Z,1651.00
2023-04-28T00:56:20.851Z,1650.00
2023-04-28T00:57:20.821Z,1654.00
2023-04-28T00:58:20.805Z,1642.00
2023-04-28T00:59:20.779Z,1648.00
2023-04-28T01:00:20.750Z,1645.00
2023-04-28T01:01:20.762Z,1656.00
2023-04-28T01:02:20.804Z,1633.00
2023-04-28T01:03:20.838Z,1639.00
2023-04-28T01:04:21.315Z,1626.00
2023-04-28T01:05:20.652Z,1634.00
2023-04-28T01:06:20.630Z,1626.00
2023-04-28T01:07:20.622Z,1626.00
2023-04-28T01:08:20.590Z,1624.00
2023-04-28T01:09:20.570Z,1631.00
2023-04-28T01:10:20.537Z,1635.00
2023-04-28T01:11:20.542Z,1622.00
2023-04-28T01:12:20.510Z,1608.00
2023-04-28T01:13:20.487Z,1627.00
2023-04-28T01:14:20.458Z,1603.00
2023-04-28T01:15:20.445Z,1611.00
2023-04-28T01:16:20.478Z,1606.00
2023-04-28T01:17:20.439Z,1606.00
2023-04-28T01:18:20.421Z,1603.00
2023-04-28T01:19:20.410Z,1602.00
2023-04-28T01:20:20.407Z,1601.00
2023-04-28T01:21:20.378Z,1600.00
2023-04-28T01:22:20.374Z,1605.00
2023-04-28T01:23:20.365Z,1607.00
2023-04-28T01:24:20.359Z,1589.00
2023-04-28T01:25:20.370Z,1601.00
2023-04-28T01:26:20.346Z,1598.00
2023-04-28T01:27:20.334Z,1587.00
2023-04-28T01:28:20.315Z,1602.00
2023-04-28T01:29:20.318Z,1589.00
2023-04-28T01:30:20.296Z,1584.00
2023-04-28T01:31:20.344Z,1583.00
2023-04-28T01:32:20.269Z,1581.00
2023-04-28T01:33:20.259Z,1572.00
2023-04-28T01:34:20.239Z,1577.00
2023-04-28T01:35:20.232Z,1580.00
2023-04-28T01:36:20.230Z,1580.00
2023-04-28T01:37:20.218Z,1586.00
2023-04-28T01:38:20.219Z,1570.00
2023-04-28T01:39:20.199Z,1571.00
2023-04-28T01:40:20.185Z,1564.00
2023-04-28T01:41:20.206Z,1576.00
2023-04-28T01:42:20.175Z,1577.00
2023-04-28T01:43:20.159Z,1568.00
2023-04-28T01:44:20.168Z,1574.00
2023-04-28T01:45:20.142Z,1556.00
2023-04-28T01:46:20.237Z,1547.00
2023-04-28T01:47:20.113Z,1557.00
2023-04-28T01:48:20.094Z,1559.00
2023-04-28T01:49:20.079Z,1538.00
2023-04-28T01:50:20.078Z,1539.00
2023-04-28T01:51:20.079Z,1543.00
2023-04-28T01:52:20.049Z,1557.00
2023-04-28T01:53:20.058Z,1545.00
2023-04-28T01:54:20.034Z,1528.00
2023-04-28T01:55:20.034Z,1534.00
2023-04-28T01:56:20.031Z,1533.00
2023-04-28T01:57:22.304Z,1526.00
2023-04-28T01:58:20.005Z,1528.00
2023-04-28T01:59:20.030Z,1528.00
2023-04-28T02:00:19.993Z,1530.00
2023-04-28T02:01:20.014Z,1523.00
2023-04-28T02:02:20.059Z,1523.00
2023-04-28T02:03:20.126Z,1537.00
2023-04-28T02:04:20.113Z,1533.00
2023-04-28T02:05:20.021Z,1523.00
2023-04-28T02:06:19.953Z,1511.00
2023-04-28T02:07:19.939Z,1522.00
2023-04-28T02:08:19.937Z,1525.00
2023-04-28T02:09:19.936Z,1510.00
2023-04-28T02:10:19.906Z,1509.00
2023-04-28T02:11:19.913Z,1500.00
2023-04-28T02:12:19.892Z,1524.00
2023-04-28T02:13:19.885Z,1497.00
2023-04-28T02:14:19.874Z,1496.00
2023-04-28T02:15:19.861Z,1516.00
2023-04-28T02:16:19.878Z,1495.00
2023-04-28T02:17:19.838Z,1503.00
2023-04-28T02:18:19.823Z,1497.00
2023-04-28T02:19:19.853Z,1495.00
2023-04-28T02:20:19.814Z,1480.00
2023-04-28T02:21:19.812Z,1499.00
2023-04-28T02:22:19.789Z,1473.00
2023-04-28T02:23:19.768Z,1482.00
2023-04-28T02:24:19.765Z,1475.00
2023-04-28T02:25:19.791Z,1476.00
2023-04-28T02:26:19.743Z,1486.00
2023-04-28T02:27:19.737Z,1487.00
2023-04-28T02:28:19.722Z,1487.00
2023-04-28T02:29:19.739Z,1469.00
2023-04-28T02:30:19.719Z,1479.00
2023-04-28T02:31:19.791Z,1482.00
2023-04-28T02:32:19.748Z,1471.00
2023-04-28T02:33:19.689Z,1467.00
2023-04-28T02:34:19.670Z,1474.00
2023-04-28T02:35:19.660Z,1469.00
2023-04-28T02:36:19.673Z,1471.00
2023-04-28T02:37:19.665Z,1458.00
2023-04-28T02:38:19.645Z,1460.00
2023-04-28T02:39:19.630Z,1464.00
2023-04-28T02:40:19.633Z,1448.00
2023-04-28T02:41:19.629Z,1457.00
2023-04-28T02:42:19.612Z,1453.00
2023-04-28T02:43:19.581Z,1446.00
2023-04-28T02:44:19.582Z,1448.00
2023-04-28T02:45:19.588Z,1440.00
2023-04-28T02:46:19.605Z,1455.00
2023-04-28T02:47:19.586Z,1452.00
2023-04-28T02:48:19.549Z,1453.00
2023-04-28T02:49:19.552Z,1428.00
2023-04-28T02:50:19.542Z,1438.00
2023-04-28T02:51:19.534Z,1439.00
2023-04-28T02:52:19.521Z,1439.00
2023-04-28T02:53:19.512Z,1446.00
2023-04-28T02:54:19.494Z,1434.00
2023-04-28T02:55:19.477Z,1428.00
2023-04-28T02:56:19.470Z,1430.00
2023-04-28T02:57:19.458Z,1427.00
2023-04-28T02:58:19.459Z,1429.00
2023-04-28T02:59:19.445Z,1418.00
2023-04-28T03:00:19.449Z,1428.00
2023-04-28T03:01:19.459Z,1419.00
2023-04-28T03:02:19.447Z,1424.00
2023-04-28T03:03:19.556Z,1427.00
2023-04-28T03:04:19.740Z,1425.00
2023-04-28T03:05:19.379Z,1410.00
2023-04-28T03:06:19.378Z,1406.00
2023-04-28T03:07:19.348Z,1423.00
2023-04-28T03:08:19.339Z,1405.00
2023-04-28T03:09:19.331Z,1416.00
2023-04-28T03:10:19.319Z,1411.00
2023-04-28T03:11:19.464Z,1405.00
2023-04-28T03:12:19.297Z,1400.00
2023-04-28T03:13:19.284Z,1407.00
2023-04-28T03:14:19.275Z,1394.00
2023-04-28T03:15:19.256Z,1400.00
2023-04-28T03:16:19.314Z,1388.00
2023-04-28T03:17:19.240Z,1379.00
2023-04-28T03:18:19.218Z,1396.00
2023-04-28T03:19:19.203Z,1393.00
2023-04-28T03:20:19.193Z,1398.00
2023-04-28T03:21:19.205Z,1388.00
2023-04-28T03:22:19.163Z,1391.00
2023-04-28T03:23:19.157Z,1388.00
2023-04-28T03:24:19.142Z,1387.00
2023-04-28T03:25:19.142Z,1383.00
2023-04-28T03:26:19.139Z,1376.00
2023-04-28T03:27:19.120Z,1384.00
2023-04-28T03:28:19.103Z,1382.00
2023-04-28T03:29:19.096Z,1379.00
2023-04-28T03:30:19.089Z,1392.00
2023-04-28T03:31:19.087Z,1382.00
2023-04-28T03:32:19.217Z,1370.00
2023-04-28T03:33:19.043Z,1383.00
2023-04-28T03:34:19.026Z,1362.00
2023-04-28T03:35:19.056Z,1375.00
2023-04-28T03:36:19.030Z,1353.00
2023-04-28T03:37:19.004Z,1372.00
2023-04-28T03:38:18.989Z,1370.00
2023-04-28T03:39:18.965Z,1356.00
2023-04-28T03:40:18.964Z,1364.00
2023-04-28T03:41:18.964Z,1358.00
2023-04-28T03:42:18.938Z,1362.00
2023-04-28T03:43:18.935Z,1338.00
2023-04-28T03:44:18.925Z,1355.00
2023-04-28T03:45:18.921Z,1345.00
2023-04-28T03:46:18.982Z,1356.00
2023-04-28T03:47:18.899Z,1343.00
2023-04-28T03:48:18.910Z,1349.00
2023-04-28T03:49:18.871Z,1340.00
2023-04-28T03:50:18.875Z,1353.00
2023-04-28T03:51:18.860Z,1348.00
2023-04-28T03:52:18.867Z,1345.00
2023-04-28T03:53:18.856Z,1344.00
2023-04-28T03:54:18.840Z,1340.00
2023-04-28T03:55:18.817Z,1337.00
2023-04-28T03:56:18.809Z,1322.00
2023-04-28T03:57:18.791Z,1338.00
2023-04-28T03:58:18.783Z,1337.00
2023-04-28T03:59:18.777Z,1327.00
2023-04-28T04:00:18.772Z,1334.00
2023-04-28T04:01:18.851Z,1326.00
2023-04-28T04:02:18.864Z,1328.00
2023-04-28T04:03:18.821Z,1328.00
2023-04-28T04:04:19.133Z,1325.00
2023-04-28T04:05:18.776Z,1315.00
2023-04-28T04:06:18.787Z,1320.00
2023-04-28T04:07:18.699Z,1318.00
2023-04-28T04:08:18.691Z,1319.00
2023-04-28T04:09:18.669Z,1332.00
2023-04-28T04:10:18.668Z,1317.00
2023-04-28T04:11:18.655Z,1314.00
2023-04-28T04:12:18.655Z,1312.00
2023-04-28T04:13:18.650Z,1305.00
2023-04-28T04:14:18.821Z,1310.00
2023-04-28T04:15:18.666Z,1300.00
2023-04-28T04:16:18.709Z,1305.00
2023-04-28T04:17:18.687Z,1308.00
2023-04-28T04:18:18.643Z,1304.00
2023-04-28T04:19:18.659Z,1305.00
2023-04-28T04:20:18.675Z,1296.00
2023-04-28T04:21:18.664Z,1301.00
2023-04-28T04:22:18.662Z,1294.00
2023-04-28T04:23:18.654Z,1313.00
2023-04-28T04:24:18.829Z,1300.00
2023-04-28T04:25:18.650Z,1303.00
2023-04-28T04:26:18.641Z,1295.00
2023-04-28T04:27:18.624Z,1294.00
2023-04-28T04:28:18.605Z,1286.00
2023-04-28T04:29:18.596Z,1290.00
2023-04-28T04:30:18.583Z,1308.00
2023-04-28T04:31:18.631Z,1286.00
2023-04-28T04:32:18.582Z,1290.00
2023-04-28T04:33:18.551Z,1288.00
2023-04-28T04:34:18.730Z,1278.00
2023-04-28T04:35:18.533Z,1286.00
2023-04-28T04:36:18.521Z,1281.00
2023-04-28T04:37:18.523Z,1266.00
2023-04-28T04:38:18.549Z,1273.00
2023-04-28T04:39:18.480Z,1263.00
2023-04-28T04:40:18.470Z,1260.00
2023-04-28T04:41:18.458Z,1272.00
2023-04-28T04:42:25.256Z,1267.00
2023-04-28T04:43:19.433Z,1268.00
2023-04-28T04:44:18.583Z,1270.00
2023-04-28T04:45:18.370Z,1269.00
2023-04-28T04:46:18.403Z,1273.00
2023-04-28T04:47:18.332Z,1273.00
2023-04-28T04:48:18.314Z,1267.00
2023-04-28T04:49:18.321Z,1269.00
2023-04-28T04:50:18.284Z,1266.00
2023-04-28T04:51:18.274Z,1263.00
2023-04-28T04:52:18.236Z,1264.00
2023-04-28T04:53:18.265Z,1257.00
2023-04-28T04:54:18.208Z,1275.00
2023-04-28T04:55:18.193Z,1250.00
2023-04-28T04:56:18.181Z,1261.00
2023-04-28T04:57:18.161Z,1269.00
2023-04-28T04:58:18.189Z,1252.00
2023-04-28T04:59:18.129Z,1247.00
2023-04-28T05:00:18.104Z,1243.00
2023-04-28T05:01:18.313Z,1255.00
2023-04-28T05:02:18.344Z,1262.00
2023-04-28T05:03:18.458Z,1256.00
2023-04-28T05:04:18.492Z,1271.00
2023-04-28T05:05:21.844Z,1257.00
2023-04-28T05:06:18.031Z,1258.00
2023-04-28T05:07:18.226Z,1262.00
2023-04-28T05:08:17.986Z,1277.00
2023-04-28T05:09:17.967Z,1288.00
2023-04-28T05:10:18.124Z,1313.00
2023-04-28T05:11:17.990Z,1311.00
2023-04-28T05:12:17.930Z,1323.00
2023-04-28T05:13:17.904Z,1342.00
2023-04-28T05:14:18.277Z,1341.00
2023-04-28T05:15:17.908Z,1326.00
2023-04-28T05:16:17.861Z,1350.00
2023-04-28T05:17:17.856Z,1371.00
2023-04-28T05:18:17.829Z,1396.00
2023-04-28T05:19:17.833Z,1405.00
2023-04-28T05:20:17.813Z,1428.00
2023-04-28T05:21:17.818Z,1445.00
2023-04-28T05:22:17.807Z,1435.00
2023-04-28T05:23:17.796Z,1434.00
2023-04-28T05:24:18.097Z,1455.00
2023-04-28T05:25:17.872Z,1502.00
2023-04-28T05:26:17.921Z,1510.00
2023-04-28T05:27:17.989Z,1521.00
2023-04-28T05:28:21.827Z,1523.00
2023-04-28T05:29:17.965Z,1523.00
2023-04-28T05:30:17.950Z,1340.00
2023-04-28T05:31:17.996Z,1238.00
2023-04-28T05:32:18.015Z,1247.00
2023-04-28T05:33:17.936Z,1251.00
2023-04-28T05:34:18.152Z,1260.00
2023-04-28T05:35:17.892Z,1307.00
2023-04-28T05:36:17.912Z,1320.00
2023-04-28T05:37:17.875Z,1324.00
2023-04-28T05:38:18.840Z,1326.00
2023-04-28T05:39:17.832Z,1334.00
2023-04-28T05:40:17.802Z,1354.00
2023-04-28T05:41:17.791Z,1387.00
2023-04-28T05:42:17.774Z,1456.00
2023-04-28T05:43:17.743Z,1472.00
2023-04-28T05:44:18.025Z,1494.00
2023-04-28T05:45:17.732Z,1494.00
2023-04-28T05:46:29.158Z,1509.00
2023-04-28T05:47:18.665Z,1510.00
2023-04-28T05:48:17.635Z,1514.00
2023-04-28T05:49:17.619Z,1515.00
2023-04-28T05:50:17.604Z,1528.00
2023-04-28T05:51:17.584Z,1541.00
2023-04-28T05:52:17.554Z,1552.00
2023-04-28T05:53:17.528Z,1550.00
2023-04-28T05:54:17.880Z,1545.00
2023-04-28T05:55:17.513Z,1558.00
2023-04-28T05:56:17.537Z,1555.00
2023-04-28T05:57:17.468Z,1568.00
2023-04-28T05:58:17.432Z,1559.00
2023-04-28T05:59:17.669Z,1567.00
2023-04-28T06:00:17.400Z,1556.00
2023-04-28T06:01:17.473Z,1559.00
2023-04-28T06:02:17.453Z,1559.00
2023-04-28T06:03:17.521Z,1564.00
2023-04-28T06:04:17.571Z,1566.00
2023-04-28T06:05:17.746Z,1559.00
2023-04-28T06:06:17.288Z,1565.00
2023-04-28T06:07:17.245Z,1573.00
2023-04-28T06:08:17.265Z,1561.00
2023-04-28T06:09:17.481Z,1568.00
2023-04-28T06:10:17.162Z,1569.00
2023-04-28T06:11:17.139Z,1570.00
2023-04-28T06:12:17.123Z,1561.00
2023-04-28T06:13:17.090Z,1565.00
2023-04-28T06:14:17.313Z,1583.00
2023-04-28T06:15:17.048Z,1574.00
2023-04-28T06:16:17.125Z,1592.00
2023-04-28T06:17:17.023Z,1561.00
2023-04-28T06:18:17.077Z,1568.00
2023-04-28T06:19:17.030Z,1568.00
2023-04-28T06:20:17.032Z,1599.00
2023-04-28T06:21:17.052Z,1630.00
2023-04-28T06:22:17.085Z,1643.00
2023-04-28T06:23:19.006Z,1670.00
2023-04-28T06:24:17.468Z,1685.00
2023-04-28T06:25:18.306Z,1582.00
2023-04-28T06:26:22.357Z,1451.00
2023-04-28T06:27:17.495Z,1451.00
2023-04-28T06:28:17.237Z,1365.00
2023-04-28T06:29:17.226Z,1273.00
2023-04-28T06:30:17.235Z,1151.00
2023-04-28T06:31:17.262Z,1049.00
2023-04-28T06:32:17.258Z,990.00
2023-04-28T06:33:17.299Z,912.00
2023-04-28T06:34:18.294Z,890.00
2023-04-28T06:35:17.483Z,855.00
2023-04-28T06:36:18.341Z,832.00
2023-04-28T06:37:18.746Z,833.00
2023-04-28T06:38:17.815Z,835.00
2023-04-28T06:39:17.847Z,840.00
2023-04-28T06:40:17.898Z,854.00
2023-04-28T06:41:18.606Z,877.00
2023-04-28T06:42:18.011Z,900.00
2023-04-28T06:43:18.048Z,949.00
2023-04-28T06:44:19.257Z,1068.00
2023-04-28T06:45:18.127Z,1126.00
2023-04-28T06:46:18.149Z,1196.00
2023-04-28T06:47:18.200Z,1226.00
2023-04-28T06:48:19.069Z,1227.00
2023-04-28T06:49:18.130Z,1235.00
2023-04-28T06:50:23.105Z,1263.00
2023-04-28T06:51:18.118Z,1230.00
2023-04-28T06:52:18.115Z,1247.00
2023-04-28T06:53:18.084Z,1280.00
2023-04-28T06:54:18.763Z,1340.00
2023-04-28T06:55:18.097Z,1417.00
2023-04-28T06:56:18.079Z,1455.00
2023-04-28T06:57:18.042Z,1450.00
2023-04-28T06:58:18.018Z,1476.00
2023-04-28T06:59:18.026Z,1476.00
2023-04-28T07:00:18.109Z,1488.00
2023-04-28T07:01:17.980Z,1491.00
2023-04-28T07:02:18.116Z,1483.00
2023-04-28T07:03:18.042Z,1487.00
2023-04-28T07:04:18.394Z,1494.00
2023-04-28T07:05:17.923Z,1510.00
2023-04-28T07:06:19.595Z,1498.00
2023-04-28T07:07:18.599Z,1509.00
2023-04-28T07:08:18.081Z,1511.00
2023-04-28T07:09:19.041Z,1511.00
2023-04-28T07:10:18.019Z,1516.00
2023-04-28T07:11:18.020Z,1525.00
2023-04-28T07:12:18.080Z,1533.00
2023-04-28T07:13:17.992Z,1554.00
2023-04-28T07:14:18.277Z,1547.00
2023-04-28T07:15:17.978Z,1553.00
2023-04-28T07:16:18.009Z,1554.00
2023-04-28T07:17:17.930Z,1554.00
2023-04-28T07:18:20.089Z,1556.00
2023-04-28T07:19:17.920Z,1566.00
2023-04-28T07:20:18.571Z,1583.00
2023-04-28T07:21:17.918Z,1638.00
2023-04-28T07:22:17.920Z,1692.00
2023-04-28T07:23:17.917Z,1723.00
2023-04-28T07:24:18.209Z,1724.00
2023-04-28T07:25:17.906Z,1732.00
2023-04-28T07:26:17.889Z,1740.00
2023-04-28T07:27:17.876Z,1747.00
2023-04-28T07:28:17.848Z,1752.00
2023-04-28T07:29:19.617Z,1756.00
2023-04-28T07:30:27.354Z,1758.00
2023-04-28T07:31:20.111Z,1760.00
2023-04-28T07:32:18.263Z,1764.00
2023-04-28T07:33:18.060Z,1768.00
2023-04-28T07:34:18.432Z,1767.00
2023-04-28T07:35:18.051Z,1758.00
2023-04-28T07:36:18.055Z,1774.00
2023-04-28T07:37:18.074Z,1807.00
2023-04-28T07:38:18.604Z,1807.00
2023-04-28T07:39:19.107Z,1793.00
2023-04-28T07:40:18.111Z,1784.00
2023-04-28T07:41:18.128Z,1778.00
2023-04-28T07:42:21.086Z,1774.00
2023-04-28T07:43:19.576Z,1768.00
2023-04-28T07:44:18.446Z,1769.00
2023-04-28T07:45:18.073Z,1770.00
2023-04-28T07:46:18.071Z,1775.00
2023-04-28T07:47:18.046Z,1769.00
2023-04-28T07:48:18.062Z,1770.00
2023-04-28T07:49:18.001Z,1773.00
2023-04-28T07:50:17.982Z,1772.00
2023-04-28T07:51:17.963Z,1773.00
2023-04-28T07:52:17.961Z,1785.00
2023-04-28T07:53:18.946Z,1769.00
2023-04-28T07:54:18.241Z,1772.00
2023-04-28T07:55:17.907Z,1761.00
2023-04-28T07:56:19.633Z,1775.00
2023-04-28T07:57:17.883Z,1742.00
2023-04-28T07:58:17.876Z,1746.00
2023-04-28T07:59:18.598Z,1745.00
2023-04-28T08:00:17.848Z,1744.00
2023-04-28T08:01:20.624Z,1756.00
2023-04-28T08:02:17.876Z,1757.00
2023-04-28T08:03:18.051Z,1748.00
2023-04-28T08:04:19.149Z,1756.00
2023-04-28T08:05:18.044Z,1743.00
2023-04-28T08:06:17.769Z,1750.00
2023-04-28T08:07:17.758Z,1734.00
2023-04-28T08:08:17.740Z,1734.00
2023-04-28T08:09:17.707Z,1740.00
2023-04-28T08:10:17.697Z,1742.00
2023-04-28T08:11:17.683Z,1754.00
2023-04-28T08:12:17.676Z,1863.00
2023-04-28T08:13:17.683Z,1815.00
2023-04-28T08:14:19.651Z,1499.00
2023-04-28T08:15:18.569Z,1279.00
2023-04-28T08:16:17.779Z,1228.00
2023-04-28T08:17:17.728Z,1120.00
2023-04-28T08:18:18.538Z,889.00
2023-04-28T08:19:17.709Z,876.00
2023-04-28T08:20:17.711Z,838.00
2023-04-28T08:21:17.728Z,756.00
2023-04-28T08:22:18.513Z,611.00
2023-04-28T08:23:17.754Z,514.00
2023-04-28T08:24:17.872Z,457.00
2023-04-28T08:25:17.816Z,407.00
2023-04-28T08:26:18.169Z,400.00
2023-04-28T08:27:17.874Z,400.00
2023-04-28T08:28:18.521Z,472.00
2023-04-28T08:29:17.927Z,519.00
2023-04-28T08:30:17.926Z,553.00
2023-04-28T08:31:17.991Z,560.00
2023-04-28T08:32:17.926Z,592.00
2023-04-28T08:33:18.144Z,628.00
2023-04-28T08:34:18.237Z,687.00
2023-04-28T08:35:17.894Z,728.00
2023-04-28T08:36:17.899Z,829.00
2023-04-28T08:37:17.884Z,947.00
2023-04-28T08:38:17.902Z,1061.00
2023-04-28T08:39:18.621Z,1063.00
2023-04-28T08:40:17.861Z,1084.00
2023-04-28T08:41:17.862Z,1140.00
2023-04-28T08:42:17.852Z,1254.00
2023-04-28T08:43:18.825Z,1074.00
2023-04-28T08:44:18.355Z,1117.00
2023-04-28T08:45:17.795Z,1188.00
2023-04-28T08:46:17.851Z,1286.00
2023-04-28T08:47:17.778Z,1416.00
2023-04-28T08:48:17.825Z,1457.00
2023-04-28T08:49:17.759Z,1538.00
2023-04-28T08:50:17.717Z,1562.00
2023-04-28T08:51:17.696Z,1627.00
2023-04-28T08:52:17.690Z,1603.00
2023-04-28T08:53:17.665Z,1602.00
2023-04-28T08:54:25.273Z,1621.00
2023-04-28T08:55:18.625Z,1622.00
2023-04-28T08:56:17.611Z,1629.00
2023-04-28T08:57:17.587Z,1654.00
2023-04-28T08:58:17.563Z,1686.00
2023-04-28T08:59:17.530Z,1627.00
2023-04-28T09:00:17.524Z,1653.00
2023-04-28T09:01:17.531Z,1701.00
2023-04-28T09:02:17.564Z,1778.00
2023-04-28T09:03:17.548Z,1885.00
2023-04-28T09:04:18.050Z,1896.00
2023-04-28T09:05:17.605Z,1916.00
2023-04-28T09:06:17.440Z,1931.00
2023-04-28T09:07:17.390Z,1942.00
2023-04-28T09:08:17.385Z,1943.00
2023-04-28T09:09:17.363Z,1948.00
2023-04-28T09:10:18.198Z,1959.00
2023-04-28T09:11:18.034Z,1973.00
2023-04-28T09:12:17.296Z,2000.00
2023-04-28T09:13:18.117Z,2004.00
2023-04-28T09:14:17.445Z,2012.00
2023-04-28T09:15:17.225Z,2033.00
2023-04-28T09:16:18.070Z,2037.00
2023-04-28T09:17:18.121Z,2088.00
2023-04-28T09:18:20.188Z,2101.00
2023-04-28T09:19:18.154Z,2124.00
2023-04-28T09:20:20.122Z,2166.00
2023-04-28T09:21:18.041Z,2167.00
2023-04-28T09:22:25.592Z,2175.00
2023-04-28T09:23:18.211Z,2170.00
2023-04-28T09:24:18.351Z,2170.00
2023-04-28T09:25:20.118Z,2184.00
2023-04-28T09:26:18.644Z,2170.00
2023-04-28T09:27:17.096Z,2180.00
2023-04-28T09:28:17.086Z,2191.00
2023-04-28T09:29:17.056Z,2209.00
2023-04-28T09:30:17.026Z,2218.00
2023-04-28T09:31:17.001Z,2229.00
2023-04-28T09:32:17.587Z,2210.00
2023-04-28T09:33:17.020Z,2227.00
2023-04-28T09:34:17.185Z,2216.00
2023-04-28T09:35:16.925Z,2197.00
2023-04-28T09:36:17.589Z,2194.00
2023-04-28T09:37:16.949Z,2190.00
2023-04-28T09:38:16.889Z,2182.00
2023-04-28T09:39:16.867Z,2196.00
2023-04-28T09:40:16.940Z,2192.00
2023-04-28T09:41:16.856Z,2171.00
2023-04-28T09:42:16.957Z,2179.00
2023-04-28T09:43:21.825Z,2170.00
2023-04-28T09:44:18.173Z,2171.00
2023-04-28T09:45:17.769Z,2172.00
2023-04-28T09:46:16.803Z,2180.00
2023-04-28T09:47:16.749Z,2184.00
2023-04-28T09:48:16.795Z,2186.00
2023-04-28T09:49:16.719Z,2170.00
2023-04-28T09:50:16.766Z,2165.00
2023-04-28T09:51:16.689Z,2140.00
2023-04-28T09:52:16.678Z,2139.00
2023-04-28T09:53:16.663Z,2140.00
2023-04-28T09:54:21.906Z,2140.00
2023-04-28T09:55:16.613Z,2140.00
2023-04-28T09:56:16.596Z,2133.00
2023-04-28T09:57:16.603Z,2141.00
2023-04-28T09:58:16.562Z,2147.00
2023-04-28T09:59:16.543Z,2172.00
2023-04-28T10:00:16.618Z,2214.00
2023-04-28T10:01:16.590Z,2311.00
2023-04-28T10:02:41.014Z,2320.00
2023-04-28T10:03:19.492Z,2321.00
2023-04-28T10:04:27.449Z,2321.00
2023-04-28T10:05:16.594Z,2323.00
2023-04-28T10:06:16.413Z,2321.00
2023-04-28T10:07:16.525Z,2286.00
2023-04-28T10:08:16.463Z,2266.00
2023-04-28T10:09:16.382Z,2304.00
2023-04-28T10:10:16.385Z,2352.00
2023-04-28T10:11:16.343Z,2362.00
2023-04-28T10:12:16.348Z,2389.00
2023-04-28T10:13:16.320Z,2430.00
2023-04-28T10:14:16.313Z,2453.00
2023-04-28T10:15:16.314Z,2485.00
2023-04-28T10:16:16.355Z,2821.00
2023-04-28T10:17:16.273Z,2887.00
2023-04-28T10:18:16.276Z,2824.00
2023-04-28T10:19:16.250Z,2683.00
2023-04-28T10:20:16.237Z,2653.00
2023-04-28T10:21:16.224Z,2612.00
2023-04-28T10:22:16.217Z,2594.00
2023-04-28T10:23:16.203Z,2635.00
2023-04-28T10:24:16.219Z,2615.00
2023-04-28T10:25:16.161Z,2614.00
2023-04-28T10:26:16.161Z,2595.00
2023-04-28T10:27:16.663Z,2570.00
2023-04-28T10:28:16.133Z,2563.00
2023-04-28T10:29:16.136Z,2560.00
2023-04-28T10:30:25.678Z,2555.00
2023-04-28T10:31:17.144Z,2555.00
2023-04-28T10:32:16.073Z,2548.00
2023-04-28T10:33:16.060Z,2544.00
2023-04-28T10:34:16.045Z,2537.00
2023-04-28T10:35:16.035Z,2522.00
2023-04-28T10:36:17.739Z,2515.00
2023-04-28T10:37:16.056Z,2538.00
2023-04-28T10:38:16.013Z,2521.00
2023-04-28T10:39:15.971Z,2479.00
2023-04-28T10:40:16.018Z,2486.00
2023-04-28T10:41:15.931Z,2492.00
2023-04-28T10:42:15.919Z,2476.00
2023-04-28T10:43:15.890Z,2471.00
2023-04-28T10:44:15.868Z,2468.00
2023-04-28T10:45:15.850Z,2460.00
2023-04-28T10:46:15.863Z,2466.00
2023-04-28T10:47:15.855Z,2445.00
2023-04-28T10:48:15.819Z,2429.00
2023-04-28T10:49:15.784Z,2431.00
2023-04-28T10:50:15.763Z,2443.00
2023-04-28T10:51:15.791Z,2423.00
2023-04-28T10:52:15.716Z,2425.00
2023-04-28T10:53:15.703Z,2404.00
2023-04-28T10:54:16.682Z,2420.00
2023-04-28T10:55:21.982Z,2421.00
2023-04-28T10:56:16.654Z,2423.00
2023-04-28T10:57:15.632Z,2428.00
2023-04-28T10:58:17.185Z,2431.00
2023-04-28T10:59:15.606Z,2437.00
2023-04-28T11:00:15.606Z,2450.00
2023-04-28T11:01:15.601Z,2446.00
2023-04-28T11:02:15.635Z,2446.00
2023-04-28T11:03:15.631Z,2471.00
2023-04-28T11:04:15.663Z,2488.00
2023-04-28T11:05:15.732Z,2511.00
2023-04-28T11:06:15.513Z,2534.00
2023-04-28T11:07:15.591Z,2574.00
2023-04-28T11:08:15.477Z,2559.00
2023-04-28T11:09:15.808Z,2543.00
2023-04-28T11:10:15.434Z,2552.00
2023-04-28T11:11:15.422Z,2536.00
2023-04-28T11:12:16.414Z,2542.00
2023-04-28T11:13:15.387Z,2550.00
2023-04-28T11:14:15.357Z,2538.00
2023-04-28T11:15:15.360Z,2546.00
2023-04-28T11:16:15.389Z,2550.00
2023-04-28T11:17:15.453Z,2550.00
2023-04-28T11:18:15.296Z,2555.00
2023-04-28T11:19:15.296Z,2557.00
2023-04-28T11:20:15.248Z,2551.00
2023-04-28T11:21:15.207Z,2564.00
2023-04-28T11:22:15.263Z,2550.00
2023-04-28T11:23:15.153Z,2524.00
2023-04-28T11:24:15.134Z,2547.00
2023-04-28T11:25:15.134Z,2546.00
2023-04-28T11:26:15.107Z,2572.00
2023-04-28T11:27:15.093Z,2563.00
2023-04-28T11:28:15.087Z,2554.00
2023-04-28T11:29:15.314Z,2541.00
2023-04-28T11:30:15.062Z,2542.00
2023-04-28T11:31:15.114Z,2575.00
2023-04-28T11:32:15.097Z,2579.00
2023-04-28T11:33:15.153Z,2570.00
2023-04-28T11:34:15.042Z,2587.00
2023-04-28T11:35:15.112Z,2563.00
2023-04-28T11:36:15.033Z,2553.00
2023-04-28T11:37:15.311Z,2560.00
2023-04-28T11:38:15.008Z,2544.00
2023-04-28T11:39:15.004Z,2539.00
2023-04-28T11:40:15.048Z,2529.00
2023-04-28T11:41:14.984Z,2515.00
2023-04-28T11:42:14.974Z,2522.00
2023-04-28T11:43:14.955Z,2530.00
2023-04-28T11:44:14.988Z,2612.00
2023-04-28T11:45:14.940Z,2636.00
2023-04-28T11:46:14.959Z,2647.00
2023-04-28T11:47:14.926Z,2681.00
2023-04-28T11:48:14.928Z,2723.00
2023-04-28T11:49:14.943Z,2749.00
2023-04-28T11:50:14.918Z,2823.00
2023-04-28T11:51:14.927Z,2824.00
2023-04-28T11:52:14.937Z,2719.00
2023-04-28T11:53:14.915Z,2671.00
2023-04-28T11:54:14.957Z,2665.00
2023-04-28T11:55:14.905Z,2639.00
2023-04-28T11:56:14.893Z,2627.00
2023-04-28T11:57:14.892Z,2606.00
2023-04-28T11:58:14.876Z,2585.00
2023-04-28T11:59:14.872Z,2580.00
2023-04-28T12:00:14.957Z,2569.00
2023-04-28T12:01:14.847Z,2569.00
2023-04-28T12:02:14.880Z,2540.00
2023-04-28T12:03:14.950Z,2534.00
2023-04-28T12:04:14.917Z,2517.00
2023-04-28T12:05:14.850Z,2475.00
2023-04-28T12:06:14.832Z,2455.00
2023-04-28T12:07:14.839Z,2438.00